sensor_id;sensor_type;location;lat;lon;timestamp;temperature;humidity
65046;DHT22;54657;52.022;5.534;2022-12-20T00:01:15;11.30;80.90
65046;DHT22;54657;52.022;5.534;2022-12-20T00:03:42;11.30;80.10
65046;DHT22;54657;52.022;5.534;2022-12-20T00:06:09;11.30;80.60
65046;DHT22;54657;52.022;5.534;2022-12-20T00:08:36;11.30;81.00
65046;DHT22;54657;52.022;5.534;2022-12-20T00:11:03;11.30;80.50
65046;DHT22;54657;52.022;5.534;2022-12-20T00:13:30;11.30;80.40
65046;DHT22;54657;52.022;5.534;2022-12-20T00:16:23;11.40;81.00
65046;DHT22;54657;52.022;5.534;2022-12-20T00:18:49;11.40;79.50
65046;DHT22;54657;52.022;5.534;2022-12-20T00:21:15;11.30;78.90
65046;DHT22;54657;52.022;5.534;2022-12-20T00:23:41;11.40;80.40
65046;DHT22;54657;52.022;5.534;2022-12-20T00:26:13;11.30;80.00
65046;DHT22;54657;52.022;5.534;2022-12-20T00:28:40;11.40;79.90
65046;DHT22;54657;52.022;5.534;2022-12-20T00:31:07;11.40;80.00
65046;DHT22;54657;52.022;5.534;2022-12-20T00:33:34;11.40;80.00
65046;DHT22;54657;52.022;5.534;2022-12-20T00:36:00;11.40;79.90
65046;DHT22;54657;52.022;5.534;2022-12-20T00:38:26;11.40;80.20
65046;DHT22;54657;52.022;5.534;2022-12-20T00:41:03;11.50;80.00
65046;DHT22;54657;52.022;5.534;2022-12-20T00:43:30;11.50;79.40
65046;DHT22;54657;52.022;5.534;2022-12-20T00:45:56;11.50;79.70
65046;DHT22;54657;52.022;5.534;2022-12-20T00:48:22;11.50;79.60
65046;DHT22;54657;52.022;5.534;2022-12-20T00:50:48;11.50;79.70
65046;DHT22;54657;52.022;5.534;2022-12-20T00:53:13;11.50;79.50
65046;DHT22;54657;52.022;5.534;2022-12-20T00:55:44;11.60;79.50
65046;DHT22;54657;52.022;5.534;2022-12-20T00:58:10;11.60;79.20
65046;DHT22;54657;52.022;5.534;2022-12-20T01:00:36;11.60;79.60
65046;DHT22;54657;52.022;5.534;2022-12-20T01:03:02;11.70;79.50
65046;DHT22;54657;52.022;5.534;2022-12-20T01:05:28;11.70;79.50
65046;DHT22;54657;52.022;5.534;2022-12-20T01:07:53;11.70;79.50
65046;DHT22;54657;52.022;5.534;2022-12-20T01:10:19;11.70;79.40
65046;DHT22;54657;52.022;5.534;2022-12-20T01:12:44;11.70;79.40
65046;DHT22;54657;52.022;5.534;2022-12-20T01:15:11;11.70;79.40
65046;DHT22;54657;52.022;5.534;2022-12-20T01:17:36;11.70;79.30
65046;DHT22;54657;52.022;5.534;2022-12-20T01:20:03;11.70;79.60
65046;DHT22;54657;52.022;5.534;2022-12-20T01:22:29;11.70;79.70
65046;DHT22;54657;52.022;5.534;2022-12-20T01:24:54;11.70;79.90
65046;DHT22;54657;52.022;5.534;2022-12-20T01:27:20;11.70;80.00
65046;DHT22;54657;52.022;5.534;2022-12-20T01:29:45;11.70;80.80
65046;DHT22;54657;52.022;5.534;2022-12-20T01:32:11;11.60;80.50
65046;DHT22;54657;52.022;5.534;2022-12-20T01:34:37;11.60;81.10
65046;DHT22;54657;52.022;5.534;2022-12-20T01:37:02;11.50;81.40
65046;DHT22;54657;52.022;5.534;2022-12-20T01:39:28;11.50;81.80
65046;DHT22;54657;52.022;5.534;2022-12-20T01:41:53;11.40;82.10
65046;DHT22;54657;52.022;5.534;2022-12-20T01:46:46;11.40;82.70
65046;DHT22;54657;52.022;5.534;2022-12-20T01:51:52;11.30;83.70
65046;DHT22;54657;52.022;5.534;2022-12-20T01:56:50;11.20;83.90
65046;DHT22;54657;52.022;5.534;2022-12-20T01:59:18;11.20;84.00
65046;DHT22;54657;52.022;5.534;2022-12-20T02:01:44;11.20;84.40
65046;DHT22;54657;52.022;5.534;2022-12-20T02:04:10;11.10;84.70
65046;DHT22;54657;52.022;5.534;2022-12-20T02:06:35;11.10;85.10
65046;DHT22;54657;52.022;5.534;2022-12-20T02:09:02;11.00;85.20
65046;DHT22;54657;52.022;5.534;2022-12-20T02:11:40;11.00;85.20
65046;DHT22;54657;52.022;5.534;2022-12-20T02:30:48;10.90;86.40
65046;DHT22;54657;52.022;5.534;2022-12-20T02:33:15;10.80;86.90
65046;DHT22;54657;52.022;5.534;2022-12-20T02:35:41;10.80;87.80
65046;DHT22;54657;52.022;5.534;2022-12-20T02:40:57;10.80;89.60
65046;DHT22;54657;52.022;5.534;2022-12-20T02:43:23;10.80;88.00
65046;DHT22;54657;52.022;5.534;2022-12-20T02:46:10;10.80;86.90
65046;DHT22;54657;52.022;5.534;2022-12-20T02:48:37;10.80;87.90
65046;DHT22;54657;52.022;5.534;2022-12-20T02:51:05;10.80;88.00
65046;DHT22;54657;52.022;5.534;2022-12-20T02:53:31;10.80;88.30
65046;DHT22;54657;52.022;5.534;2022-12-20T02:58:31;10.90;88.70
65046;DHT22;54657;52.022;5.534;2022-12-20T03:01:02;10.80;88.00
65046;DHT22;54657;52.022;5.534;2022-12-20T03:03:33;10.90;87.30
65046;DHT22;54657;52.022;5.534;2022-12-20T03:06:00;10.90;87.70
65046;DHT22;54657;52.022;5.534;2022-12-20T03:08:26;10.90;87.20
65046;DHT22;54657;52.022;5.534;2022-12-20T03:10:53;10.90;87.50
65046;DHT22;54657;52.022;5.534;2022-12-20T03:13:20;10.90;87.90
65046;DHT22;54657;52.022;5.534;2022-12-20T03:15:46;10.90;87.30
65046;DHT22;54657;52.022;5.534;2022-12-20T03:18:12;10.90;87.30
65046;DHT22;54657;52.022;5.534;2022-12-20T03:20:37;10.90;87.30
65046;DHT22;54657;52.022;5.534;2022-12-20T03:23:03;10.80;87.70
65046;DHT22;54657;52.022;5.534;2022-12-20T03:25:29;10.90;87.30
65046;DHT22;54657;52.022;5.534;2022-12-20T03:27:55;10.90;87.60
65046;DHT22;54657;52.022;5.534;2022-12-20T03:30:20;10.80;87.60
65046;DHT22;54657;52.022;5.534;2022-12-20T03:32:46;10.90;87.30
65046;DHT22;54657;52.022;5.534;2022-12-20T03:35:11;10.90;87.20
65046;DHT22;54657;52.022;5.534;2022-12-20T03:37:37;10.90;86.90
65046;DHT22;54657;52.022;5.534;2022-12-20T03:40:03;11.00;87.00
65046;DHT22;54657;52.022;5.534;2022-12-20T03:42:28;11.00;87.00
65046;DHT22;54657;52.022;5.534;2022-12-20T03:44:54;11.00;87.00
65046;DHT22;54657;52.022;5.534;2022-12-20T03:47:19;11.00;86.70
65046;DHT22;54657;52.022;5.534;2022-12-20T03:49:45;11.00;86.30
65046;DHT22;54657;52.022;5.534;2022-12-20T03:52:11;11.10;86.40
65046;DHT22;54657;52.022;5.534;2022-12-20T03:54:37;11.00;86.50
65046;DHT22;54657;52.022;5.534;2022-12-20T03:57:03;11.00;86.50
65046;DHT22;54657;52.022;5.534;2022-12-20T03:59:29;11.10;86.90
65046;DHT22;54657;52.022;5.534;2022-12-20T04:01:54;11.10;86.70
65046;DHT22;54657;52.022;5.534;2022-12-20T04:04:20;11.10;86.40
65046;DHT22;54657;52.022;5.534;2022-12-20T04:06:45;11.10;86.60
65046;DHT22;54657;52.022;5.534;2022-12-20T04:09:12;11.10;86.60
65046;DHT22;54657;52.022;5.534;2022-12-20T04:11:38;11.10;86.60
65046;DHT22;54657;52.022;5.534;2022-12-20T04:14:04;11.10;86.30
65046;DHT22;54657;52.022;5.534;2022-12-20T04:16:29;11.20;86.00
65046;DHT22;54657;52.022;5.534;2022-12-20T04:18:55;11.20;86.10
65046;DHT22;54657;52.022;5.534;2022-12-20T04:21:22;11.20;86.20
65046;DHT22;54657;52.022;5.534;2022-12-20T04:23:48;11.20;86.30
65046;DHT22;54657;52.022;5.534;2022-12-20T04:26:14;11.20;86.30
65046;DHT22;54657;52.022;5.534;2022-12-20T04:28:39;11.20;86.10
65046;DHT22;54657;52.022;5.534;2022-12-20T04:31:05;11.30;86.10
65046;DHT22;54657;52.022;5.534;2022-12-20T04:33:31;11.30;86.00
65046;DHT22;54657;52.022;5.534;2022-12-20T04:35:56;11.30;85.80
65046;DHT22;54657;52.022;5.534;2022-12-20T04:38:22;11.30;85.80
65046;DHT22;54657;52.022;5.534;2022-12-20T04:40:49;11.40;85.80
65046;DHT22;54657;52.022;5.534;2022-12-20T04:43:16;11.30;85.90
65046;DHT22;54657;52.022;5.534;2022-12-20T04:45:42;11.40;86.00
65046;DHT22;54657;52.022;5.534;2022-12-20T04:48:08;11.40;86.00
65046;DHT22;54657;52.022;5.534;2022-12-20T04:50:34;11.40;85.90
65046;DHT22;54657;52.022;5.534;2022-12-20T04:53:00;11.40;85.60
65046;DHT22;54657;52.022;5.534;2022-12-20T04:55:44;11.50;85.60
65046;DHT22;54657;52.022;5.534;2022-12-20T04:58:10;11.50;85.90
65046;DHT22;54657;52.022;5.534;2022-12-20T05:00:35;11.50;85.80
65046;DHT22;54657;52.022;5.534;2022-12-20T05:03:01;11.50;86.60
65046;DHT22;54657;52.022;5.534;2022-12-20T05:05:27;11.50;86.60
65046;DHT22;54657;52.022;5.534;2022-12-20T05:07:53;11.50;86.60
65046;DHT22;54657;52.022;5.534;2022-12-20T05:10:18;11.50;86.60
65046;DHT22;54657;52.022;5.534;2022-12-20T05:12:44;11.40;87.20
65046;DHT22;54657;52.022;5.534;2022-12-20T05:15:10;11.40;87.20
65046;DHT22;54657;52.022;5.534;2022-12-20T05:17:36;11.40;87.20
65046;DHT22;54657;52.022;5.534;2022-12-20T05:20:02;11.40;87.40
65046;DHT22;54657;52.022;5.534;2022-12-20T05:22:28;11.40;87.80
65046;DHT22;54657;52.022;5.534;2022-12-20T05:25:12;11.30;87.80
65046;DHT22;54657;52.022;5.534;2022-12-20T05:27:56;11.40;88.00
65046;DHT22;54657;52.022;5.534;2022-12-20T05:30:23;11.40;87.70
65046;DHT22;54657;52.022;5.534;2022-12-20T05:32:48;11.40;87.70
65046;DHT22;54657;52.022;5.534;2022-12-20T05:35:14;11.40;87.90
65046;DHT22;54657;52.022;5.534;2022-12-20T05:37:39;11.40;87.90
65046;DHT22;54657;52.022;5.534;2022-12-20T05:40:06;11.40;87.90
65046;DHT22;54657;52.022;5.534;2022-12-20T05:42:31;11.30;88.50
65046;DHT22;54657;52.022;5.534;2022-12-20T05:44:57;11.40;88.60
65046;DHT22;54657;52.022;5.534;2022-12-20T05:47:22;11.30;88.90
65046;DHT22;54657;52.022;5.534;2022-12-20T05:49:49;11.30;89.50
65046;DHT22;54657;52.022;5.534;2022-12-20T05:52:14;11.30;89.50
65046;DHT22;54657;52.022;5.534;2022-12-20T05:54:40;11.30;89.40
65046;DHT22;54657;52.022;5.534;2022-12-20T05:57:05;11.30;89.30
65046;DHT22;54657;52.022;5.534;2022-12-20T05:59:31;11.30;89.00
65046;DHT22;54657;52.022;5.534;2022-12-20T06:01:57;11.40;89.20
65046;DHT22;54657;52.022;5.534;2022-12-20T06:04:22;11.40;89.00
65046;DHT22;54657;52.022;5.534;2022-12-20T06:06:48;11.40;89.10
65046;DHT22;54657;52.022;5.534;2022-12-20T06:09:13;11.40;88.60
65046;DHT22;54657;52.022;5.534;2022-12-20T06:11:39;11.40;88.10
65046;DHT22;54657;52.022;5.534;2022-12-20T06:14:04;11.40;88.40
65046;DHT22;54657;52.022;5.534;2022-12-20T06:16:30;11.50;87.90
65046;DHT22;54657;52.022;5.534;2022-12-20T06:18:55;11.50;87.90
65046;DHT22;54657;52.022;5.534;2022-12-20T06:21:21;11.50;87.70
65046;DHT22;54657;52.022;5.534;2022-12-20T06:23:47;11.60;87.50
65046;DHT22;54657;52.022;5.534;2022-12-20T06:26:13;11.60;87.30
65046;DHT22;54657;52.022;5.534;2022-12-20T06:28:39;11.60;87.30
65046;DHT22;54657;52.022;5.534;2022-12-20T06:31:09;11.60;87.30
65046;DHT22;54657;52.022;5.534;2022-12-20T06:33:35;11.60;87.00
65046;DHT22;54657;52.022;5.534;2022-12-20T06:36:01;11.60;87.10
65046;DHT22;54657;52.022;5.534;2022-12-20T06:38:27;11.60;86.90
65046;DHT22;54657;52.022;5.534;2022-12-20T06:40:52;11.70;86.90
65046;DHT22;54657;52.022;5.534;2022-12-20T06:43:18;11.70;86.70
65046;DHT22;54657;52.022;5.534;2022-12-20T06:45:44;11.70;86.60
65046;DHT22;54657;52.022;5.534;2022-12-20T06:48:10;11.80;86.40
65046;DHT22;54657;52.022;5.534;2022-12-20T06:50:37;11.80;86.20
65046;DHT22;54657;52.022;5.534;2022-12-20T06:53:02;11.80;86.00
65046;DHT22;54657;52.022;5.534;2022-12-20T06:55:28;11.90;85.80
65046;DHT22;54657;52.022;5.534;2022-12-20T06:57:54;11.90;85.60
65046;DHT22;54657;52.022;5.534;2022-12-20T07:00:21;11.90;85.50
65046;DHT22;54657;52.022;5.534;2022-12-20T07:02:47;11.90;85.30
65046;DHT22;54657;52.022;5.534;2022-12-20T07:05:12;11.90;85.40
65046;DHT22;54657;52.022;5.534;2022-12-20T07:07:38;11.90;85.30
65046;DHT22;54657;52.022;5.534;2022-12-20T07:10:04;11.90;85.30
65046;DHT22;54657;52.022;5.534;2022-12-20T07:12:30;11.90;85.20
65046;DHT22;54657;52.022;5.534;2022-12-20T07:14:57;12.00;85.20
65046;DHT22;54657;52.022;5.534;2022-12-20T07:17:22;12.00;85.10
65046;DHT22;54657;52.022;5.534;2022-12-20T07:19:48;12.00;84.90
65046;DHT22;54657;52.022;5.534;2022-12-20T07:22:13;12.00;84.80
65046;DHT22;54657;52.022;5.534;2022-12-20T07:24:39;12.00;84.60
65046;DHT22;54657;52.022;5.534;2022-12-20T07:27:04;12.00;84.50
65046;DHT22;54657;52.022;5.534;2022-12-20T07:29:30;12.00;84.50
65046;DHT22;54657;52.022;5.534;2022-12-20T07:31:56;12.00;84.40
65046;DHT22;54657;52.022;5.534;2022-12-20T07:34:21;12.10;84.20
65046;DHT22;54657;52.022;5.534;2022-12-20T07:36:47;12.00;83.90
65046;DHT22;54657;52.022;5.534;2022-12-20T07:39:13;12.10;84.00
65046;DHT22;54657;52.022;5.534;2022-12-20T07:41:39;12.10;84.00
65046;DHT22;54657;52.022;5.534;2022-12-20T07:44:05;12.10;83.70
65046;DHT22;54657;52.022;5.534;2022-12-20T07:46:30;12.10;83.70
65046;DHT22;54657;52.022;5.534;2022-12-20T07:48:56;12.10;83.40
65046;DHT22;54657;52.022;5.534;2022-12-20T07:51:37;12.10;83.40
65046;DHT22;54657;52.022;5.534;2022-12-20T07:54:10;12.20;82.30
65046;DHT22;54657;52.022;5.534;2022-12-20T07:56:39;12.20;83.10
65046;DHT22;54657;52.022;5.534;2022-12-20T07:59:07;12.20;83.10
65046;DHT22;54657;52.022;5.534;2022-12-20T08:01:33;12.20;83.20
65046;DHT22;54657;52.022;5.534;2022-12-20T08:04:04;12.20;83.10
65046;DHT22;54657;52.022;5.534;2022-12-20T08:06:32;12.20;82.90
65046;DHT22;54657;52.022;5.534;2022-12-20T08:09:02;12.20;83.00
65046;DHT22;54657;52.022;5.534;2022-12-20T08:11:29;12.20;82.90
65046;DHT22;54657;52.022;5.534;2022-12-20T08:13:56;12.10;83.10
65046;DHT22;54657;52.022;5.534;2022-12-20T08:16:21;12.10;83.00
65046;DHT22;54657;52.022;5.534;2022-12-20T08:18:47;12.10;83.10
65046;DHT22;54657;52.022;5.534;2022-12-20T08:21:13;12.20;83.00
65046;DHT22;54657;52.022;5.534;2022-12-20T08:23:39;12.10;83.00
65046;DHT22;54657;52.022;5.534;2022-12-20T08:26:05;12.10;83.10
65046;DHT22;54657;52.022;5.534;2022-12-20T08:28:31;12.10;83.10
65046;DHT22;54657;52.022;5.534;2022-12-20T08:31:04;12.10;83.10
65046;DHT22;54657;52.022;5.534;2022-12-20T08:33:31;12.20;82.40
65046;DHT22;54657;52.022;5.534;2022-12-20T08:36:02;12.10;83.10
65046;DHT22;54657;52.022;5.534;2022-12-20T08:38:29;12.10;83.10
65046;DHT22;54657;52.022;5.534;2022-12-20T08:41:02;12.20;83.00
65046;DHT22;54657;52.022;5.534;2022-12-20T08:43:29;12.10;82.80
65046;DHT22;54657;52.022;5.534;2022-12-20T08:45:55;12.10;83.10
65046;DHT22;54657;52.022;5.534;2022-12-20T08:48:21;12.10;83.10
65046;DHT22;54657;52.022;5.534;2022-12-20T08:50:52;12.10;83.20
65046;DHT22;54657;52.022;5.534;2022-12-20T08:53:18;12.10;83.30
65046;DHT22;54657;52.022;5.534;2022-12-20T08:55:44;12.10;83.30
65046;DHT22;54657;52.022;5.534;2022-12-20T08:58:09;12.10;83.40
65046;DHT22;54657;52.022;5.534;2022-12-20T09:00:35;12.00;83.80
65046;DHT22;54657;52.022;5.534;2022-12-20T09:03:02;12.00;84.20
65046;DHT22;54657;52.022;5.534;2022-12-20T09:05:28;11.90;84.70
65046;DHT22;54657;52.022;5.534;2022-12-20T09:07:53;11.90;85.00
65046;DHT22;54657;52.022;5.534;2022-12-20T09:10:19;11.90;85.10
65046;DHT22;54657;52.022;5.534;2022-12-20T09:12:44;11.80;85.40
65046;DHT22;54657;52.022;5.534;2022-12-20T09:15:11;11.80;85.50
65046;DHT22;54657;52.022;5.534;2022-12-20T09:17:36;11.80;85.80
65046;DHT22;54657;52.022;5.534;2022-12-20T09:20:03;11.70;86.30
65046;DHT22;54657;52.022;5.534;2022-12-20T09:22:29;11.60;86.80
65046;DHT22;54657;52.022;5.534;2022-12-20T09:24:55;11.60;87.10
65046;DHT22;54657;52.022;5.534;2022-12-20T09:27:21;11.50;87.70
65046;DHT22;54657;52.022;5.534;2022-12-20T09:29:47;11.50;88.30
65046;DHT22;54657;52.022;5.534;2022-12-20T09:32:12;11.50;87.90
65046;DHT22;54657;52.022;5.534;2022-12-20T09:34:38;11.40;88.30
65046;DHT22;54657;52.022;5.534;2022-12-20T09:37:04;11.40;88.30
65046;DHT22;54657;52.022;5.534;2022-12-20T09:39:30;11.40;88.80
65046;DHT22;54657;52.022;5.534;2022-12-20T09:41:56;11.40;88.60
65046;DHT22;54657;52.022;5.534;2022-12-20T09:44:32;11.40;88.30
65046;DHT22;54657;52.022;5.534;2022-12-20T09:47:16;11.40;88.70
65046;DHT22;54657;52.022;5.534;2022-12-20T09:49:45;11.40;88.40
65046;DHT22;54657;52.022;5.534;2022-12-20T10:00:19;11.40;89.10
65046;DHT22;54657;52.022;5.534;2022-12-20T10:02:45;11.40;89.30
65046;DHT22;54657;52.022;5.534;2022-12-20T10:05:14;11.30;89.20
65046;DHT22;54657;52.022;5.534;2022-12-20T10:07:59;11.40;89.40
65046;DHT22;54657;52.022;5.534;2022-12-20T10:10:41;11.30;89.80
65046;DHT22;54657;52.022;5.534;2022-12-20T10:13:25;11.30;90.00
65046;DHT22;54657;52.022;5.534;2022-12-20T10:16:00;11.30;90.20
65046;DHT22;54657;52.022;5.534;2022-12-20T10:24:26;11.30;90.40
65046;DHT22;54657;52.022;5.534;2022-12-20T10:26:53;11.30;90.40
65046;DHT22;54657;52.022;5.534;2022-12-20T10:29:19;11.30;89.70
65046;DHT22;54657;52.022;5.534;2022-12-20T10:31:48;11.30;90.00
65046;DHT22;54657;52.022;5.534;2022-12-20T10:34:14;11.30;89.70
65046;DHT22;54657;52.022;5.534;2022-12-20T10:36:39;11.20;90.40
65046;DHT22;54657;52.022;5.534;2022-12-20T10:39:08;11.20;90.60
65046;DHT22;54657;52.022;5.534;2022-12-20T10:44:17;11.20;90.60
65046;DHT22;54657;52.022;5.534;2022-12-20T10:46:55;11.20;90.80
65046;DHT22;54657;52.022;5.534;2022-12-20T10:51:55;11.20;90.50
65046;DHT22;54657;52.022;5.534;2022-12-20T10:54:44;11.20;90.30
65046;DHT22;54657;52.022;5.534;2022-12-20T10:57:21;11.20;90.50
65046;DHT22;54657;52.022;5.534;2022-12-20T10:59:54;11.30;91.00
65046;DHT22;54657;52.022;5.534;2022-12-20T11:07:32;11.20;91.40
65046;DHT22;54657;52.022;5.534;2022-12-20T11:10:16;11.20;90.80
65046;DHT22;54657;52.022;5.534;2022-12-20T11:12:55;11.20;90.80
65046;DHT22;54657;52.022;5.534;2022-12-20T11:15:24;11.20;91.00
65046;DHT22;54657;52.022;5.534;2022-12-20T11:17:54;11.20;90.90
65046;DHT22;54657;52.022;5.534;2022-12-20T11:20:41;11.20;91.00
65046;DHT22;54657;52.022;5.534;2022-12-20T11:28:46;11.20;90.70
65046;DHT22;54657;52.022;5.534;2022-12-20T11:42:26;11.40;91.80
65046;DHT22;54657;52.022;5.534;2022-12-20T11:53:40;11.40;92.00
65046;DHT22;54657;52.022;5.534;2022-12-20T11:56:13;11.40;90.70
65046;DHT22;54657;52.022;5.534;2022-12-20T11:58:52;11.40;91.10
65046;DHT22;54657;52.022;5.534;2022-12-20T12:01:31;11.30;91.50
65046;DHT22;54657;52.022;5.534;2022-12-20T12:04:15;11.40;91.00
65046;DHT22;54657;52.022;5.534;2022-12-20T12:06:57;11.40;91.00
65046;DHT22;54657;52.022;5.534;2022-12-20T12:12:04;11.40;91.10
65046;DHT22;54657;52.022;5.534;2022-12-20T12:17:38;11.40;92.00
65046;DHT22;54657;52.022;5.534;2022-12-20T12:23:04;11.40;91.60
65046;DHT22;54657;52.022;5.534;2022-12-20T12:25:31;11.40;91.80
65046;DHT22;54657;52.022;5.534;2022-12-20T12:27:57;11.40;91.20
65046;DHT22;54657;52.022;5.534;2022-12-20T12:30:23;11.40;91.10
65046;DHT22;54657;52.022;5.534;2022-12-20T12:33:01;11.50;91.20
65046;DHT22;54657;52.022;5.534;2022-12-20T12:35:55;11.50;91.60
65046;DHT22;54657;52.022;5.534;2022-12-20T12:46:58;11.50;91.20
65046;DHT22;54657;52.022;5.534;2022-12-20T12:49:27;11.50;91.30
65046;DHT22;54657;52.022;5.534;2022-12-20T12:51:57;11.50;91.20
65046;DHT22;54657;52.022;5.534;2022-12-20T12:57:13;11.50;91.40
65046;DHT22;54657;52.022;5.534;2022-12-20T12:59:43;11.60;91.80
65046;DHT22;54657;52.022;5.534;2022-12-20T13:04:58;11.50;91.30
65046;DHT22;54657;52.022;5.534;2022-12-20T13:18:00;11.60;91.30
65046;DHT22;54657;52.022;5.534;2022-12-20T13:20:31;11.60;91.60
65046;DHT22;54657;52.022;5.534;2022-12-20T13:43:48;11.60;91.60
65046;DHT22;54657;52.022;5.534;2022-12-20T13:46:31;11.60;91.40
65046;DHT22;54657;52.022;5.534;2022-12-20T13:49:02;11.70;91.20
65046;DHT22;54657;52.022;5.534;2022-12-20T13:51:29;11.60;91.50
65046;DHT22;54657;52.022;5.534;2022-12-20T13:54:04;11.60;91.50
65046;DHT22;54657;52.022;5.534;2022-12-20T13:59:26;11.60;91.60
65046;DHT22;54657;52.022;5.534;2022-12-20T14:01:57;11.60;91.90
65046;DHT22;54657;52.022;5.534;2022-12-20T14:04:25;11.60;91.60
65046;DHT22;54657;52.022;5.534;2022-12-20T14:06:54;11.60;91.60
65046;DHT22;54657;52.022;5.534;2022-12-20T14:09:33;11.60;91.40
65046;DHT22;54657;52.022;5.534;2022-12-20T14:12:11;11.60;91.60
65046;DHT22;54657;52.022;5.534;2022-12-20T14:14:41;11.70;91.90
65046;DHT22;54657;52.022;5.534;2022-12-20T14:17:33;11.60;91.60
65046;DHT22;54657;52.022;5.534;2022-12-20T14:22:39;11.60;91.80
65046;DHT22;54657;52.022;5.534;2022-12-20T14:25:07;11.70;91.50
65046;DHT22;54657;52.022;5.534;2022-12-20T14:27:35;11.70;91.40
65046;DHT22;54657;52.022;5.534;2022-12-20T14:30:02;11.60;91.50
65046;DHT22;54657;52.022;5.534;2022-12-20T14:32:28;11.60;91.50
65046;DHT22;54657;52.022;5.534;2022-12-20T14:34:54;11.60;91.60
65046;DHT22;54657;52.022;5.534;2022-12-20T14:42:27;11.60;91.90
65046;DHT22;54657;52.022;5.534;2022-12-20T14:45:05;11.60;91.60
65046;DHT22;54657;52.022;5.534;2022-12-20T14:47:31;11.70;91.40
65046;DHT22;54657;52.022;5.534;2022-12-20T14:50:02;11.60;91.50
65046;DHT22;54657;52.022;5.534;2022-12-20T14:52:36;11.60;91.60
65046;DHT22;54657;52.022;5.534;2022-12-20T14:55:21;11.60;91.60
65046;DHT22;54657;52.022;5.534;2022-12-20T14:57:51;11.60;91.70
65046;DHT22;54657;52.022;5.534;2022-12-20T15:08:20;11.60;92.20
65046;DHT22;54657;52.022;5.534;2022-12-20T15:10:58;11.60;92.10
65046;DHT22;54657;52.022;5.534;2022-12-20T15:13:36;11.50;92.00
65046;DHT22;54657;52.022;5.534;2022-12-20T15:16:30;11.50;92.50
65046;DHT22;54657;52.022;5.534;2022-12-20T15:19:01;11.50;92.00
65046;DHT22;54657;52.022;5.534;2022-12-20T15:21:43;11.50;91.80
65046;DHT22;54657;52.022;5.534;2022-12-20T15:24:15;11.50;92.40
65046;DHT22;54657;52.022;5.534;2022-12-20T15:26:43;11.50;92.00
65046;DHT22;54657;52.022;5.534;2022-12-20T15:29:15;11.50;91.80
65046;DHT22;54657;52.022;5.534;2022-12-20T15:31:41;11.50;91.70
65046;DHT22;54657;52.022;5.534;2022-12-20T15:34:34;11.50;92.80
65046;DHT22;54657;52.022;5.534;2022-12-20T15:37:00;11.50;92.10
65046;DHT22;54657;52.022;5.534;2022-12-20T15:39:27;11.50;91.40
65046;DHT22;54657;52.022;5.534;2022-12-20T15:41:53;11.50;91.60
65046;DHT22;54657;52.022;5.534;2022-12-20T15:44:25;11.60;91.50
65046;DHT22;54657;52.022;5.534;2022-12-20T15:46:51;11.60;91.50
65046;DHT22;54657;52.022;5.534;2022-12-20T15:49:37;11.60;91.50
65046;DHT22;54657;52.022;5.534;2022-12-20T15:52:02;11.60;91.60
65046;DHT22;54657;52.022;5.534;2022-12-20T15:54:30;11.60;91.60
65046;DHT22;54657;52.022;5.534;2022-12-20T15:56:59;11.50;91.60
65046;DHT22;54657;52.022;5.534;2022-12-20T15:59:29;11.60;91.60
65046;DHT22;54657;52.022;5.534;2022-12-20T16:01:54;11.50;91.60
65046;DHT22;54657;52.022;5.534;2022-12-20T16:04:23;11.50;91.60
65046;DHT22;54657;52.022;5.534;2022-12-20T16:06:50;11.50;91.70
65046;DHT22;54657;52.022;5.534;2022-12-20T16:09:18;11.50;91.60
65046;DHT22;54657;52.022;5.534;2022-12-20T16:11:45;11.50;91.70
65046;DHT22;54657;52.022;5.534;2022-12-20T16:14:15;11.50;91.60
65046;DHT22;54657;52.022;5.534;2022-12-20T16:16:41;11.50;91.80
65046;DHT22;54657;52.022;5.534;2022-12-20T16:19:09;11.50;91.60
65046;DHT22;54657;52.022;5.534;2022-12-20T16:21:44;11.50;91.80
65046;DHT22;54657;52.022;5.534;2022-12-20T16:24:13;11.50;91.80
65046;DHT22;54657;52.022;5.534;2022-12-20T16:26:39;11.40;91.90
65046;DHT22;54657;52.022;5.534;2022-12-20T16:29:05;11.50;91.70
65046;DHT22;54657;52.022;5.534;2022-12-20T16:31:35;11.50;91.60
65046;DHT22;54657;52.022;5.534;2022-12-20T16:34:03;11.50;91.80
65046;DHT22;54657;52.022;5.534;2022-12-20T16:36:29;11.50;91.60
65046;DHT22;54657;52.022;5.534;2022-12-20T16:38:55;11.50;91.50
65046;DHT22;54657;52.022;5.534;2022-12-20T16:41:23;11.50;91.60
65046;DHT22;54657;52.022;5.534;2022-12-20T16:43:50;11.50;91.60
65046;DHT22;54657;52.022;5.534;2022-12-20T16:46:21;11.50;91.60
65046;DHT22;54657;52.022;5.534;2022-12-20T16:48:47;11.50;91.70
65046;DHT22;54657;52.022;5.534;2022-12-20T16:53:44;11.50;91.60
65046;DHT22;54657;52.022;5.534;2022-12-20T16:56:10;11.50;91.80
65046;DHT22;54657;52.022;5.534;2022-12-20T16:58:37;11.50;91.90
65046;DHT22;54657;52.022;5.534;2022-12-20T17:01:02;11.50;91.90
65046;DHT22;54657;52.022;5.534;2022-12-20T17:03:28;11.50;91.90
65046;DHT22;54657;52.022;5.534;2022-12-20T17:05:54;11.50;91.90
65046;DHT22;54657;52.022;5.534;2022-12-20T17:08:21;11.50;91.60
65046;DHT22;54657;52.022;5.534;2022-12-20T17:10:47;11.50;91.70
65046;DHT22;54657;52.022;5.534;2022-12-20T17:13:13;11.50;91.80
65046;DHT22;54657;52.022;5.534;2022-12-20T17:15:39;11.50;91.80
65046;DHT22;54657;52.022;5.534;2022-12-20T17:18:07;11.50;91.90
65046;DHT22;54657;52.022;5.534;2022-12-20T17:20:33;11.50;91.80
65046;DHT22;54657;52.022;5.534;2022-12-20T17:22:58;11.50;91.80
65046;DHT22;54657;52.022;5.534;2022-12-20T17:25:27;11.50;91.80
65046;DHT22;54657;52.022;5.534;2022-12-20T17:27:53;11.50;91.70
65046;DHT22;54657;52.022;5.534;2022-12-20T17:30:21;11.50;91.60
65046;DHT22;54657;52.022;5.534;2022-12-20T17:32:46;11.60;91.60
65046;DHT22;54657;52.022;5.534;2022-12-20T17:35:21;11.60;91.60
65046;DHT22;54657;52.022;5.534;2022-12-20T17:37:47;11.60;91.60
65046;DHT22;54657;52.022;5.534;2022-12-20T17:40:15;11.60;91.50
65046;DHT22;54657;52.022;5.534;2022-12-20T17:42:41;11.50;91.70
65046;DHT22;54657;52.022;5.534;2022-12-20T17:45:28;11.50;91.60
65046;DHT22;54657;52.022;5.534;2022-12-20T17:47:54;11.60;92.00
65046;DHT22;54657;52.022;5.534;2022-12-20T17:50:21;11.60;91.60
65046;DHT22;54657;52.022;5.534;2022-12-20T17:52:47;11.50;91.50
65046;DHT22;54657;52.022;5.534;2022-12-20T17:55:21;11.60;91.60
65046;DHT22;54657;52.022;5.534;2022-12-20T17:57:47;11.60;91.60
65046;DHT22;54657;52.022;5.534;2022-12-20T18:00:18;11.60;91.60
65046;DHT22;54657;52.022;5.534;2022-12-20T18:02:45;11.60;91.50
65046;DHT22;54657;52.022;5.534;2022-12-20T18:05:11;11.60;91.50
65046;DHT22;54657;52.022;5.534;2022-12-20T18:07:37;11.60;91.50
65046;DHT22;54657;52.022;5.534;2022-12-20T18:10:03;11.60;91.50
65046;DHT22;54657;52.022;5.534;2022-12-20T18:12:28;11.60;91.60